Time;durP1;ratioP1;P1;durP2;ratioP2;P2;SDS_P1;SDS_P2;PMS_P1;PMS_P2;Temp;Humidity;BMP_temperature;BMP_pressure;BME280_temperature;BME280_humidity;BME280_pressure;Samples;Min_cycle;Max_cycle;Signal;HPM_P1;HPM_P2
2023/07/22 00:00:58;;;;;;;0.50;0.50;;;;;;;11.75;83.07;98584.84;5071703;28;20659;-82
2023/07/22 00:03:25;;;;;;;0.40;0.40;;;;;;;11.76;82.83;98571.09;5072466;28;20049;-82
2023/07/22 00:06:03;;;;;;;0.40;0.40;;;;;;;11.74;82.79;98577.81;5092226;28;20052;-82
2023/07/22 00:08:30;;;;;;;0.40;0.40;;;;;;;11.68;83.04;98580.50;5092131;28;20060;-80
2023/07/22 00:10:57;;;;;;;0.40;0.40;;;;;;;11.64;83.27;98578.59;5091980;28;20055;-81
2023/07/22 00:13:26;;;;;;;0.40;0.40;;;;;;;11.61;83.81;98587.22;5091266;28;20048;-82
2023/07/22 00:15:54;;;;;;;0.50;0.50;;;;;;;11.55;83.81;98582.88;5091588;28;20051;-82
2023/07/22 00:18:21;;;;;;;0.40;0.40;;;;;;;11.53;84.19;98585.81;5071297;28;20056;-81
2023/07/22 00:20:48;;;;;;;0.40;0.40;;;;;;;11.48;84.42;98588.50;5071363;28;20051;-81
2023/07/22 00:23:17;;;;;;;0.40;0.40;;;;;;;11.49;84.58;98588.25;5071111;28;20464;-82
2023/07/22 00:25:44;;;;;;;0.50;0.50;;;;;;;11.45;84.40;98580.91;5071582;28;20048;-82
2023/07/22 00:28:11;;;;;;;0.45;0.45;;;;;;;11.51;84.56;98590.66;5071186;28;20117;-82
2023/07/22 00:30:38;;;;;;;0.50;0.50;;;;;;;11.45;84.79;98584.44;5071660;28;20045;-81
2023/07/22 00:33:05;;;;;;;0.50;0.50;;;;;;;11.55;84.65;98586.38;5053197;28;20049;-81
2023/07/22 00:35:33;;;;;;;0.50;0.50;;;;;;;11.57;84.24;98586.09;5070455;28;20148;-82
2023/07/22 00:38:01;;;;;;;0.40;0.40;;;;;;;11.57;84.40;98586.94;5053663;28;20125;-82
2023/07/22 00:40:31;;;;;;;0.50;0.50;;;;;;;11.55;84.31;98582.88;5071800;28;20422;-82
2023/07/22 00:43:01;;;;;;;0.50;0.50;;;;;;;11.42;84.67;98590.34;5057115;28;20070;-83
2023/07/22 00:45:29;;;;;;;0.40;0.40;;;;;;;11.36;85.25;98587.88;5083585;28;20081;-81
2023/07/22 00:47:56;;;;;;;0.50;0.50;;;;;;;11.35;85.55;98586.25;5082705;28;20078;-82
2023/07/22 00:50:24;;;;;;;0.50;0.50;;;;;;;11.37;85.67;98589.47;5069926;28;20044;-84
2023/07/22 00:52:52;;;;;;;0.43;0.43;;;;;;;11.39;85.62;98593.56;5069833;28;20131;-82
2023/07/22 00:55:19;;;;;;;0.40;0.40;;;;;;;11.36;85.65;98598.66;5070787;28;20048;-82
2023/07/22 00:57:47;;;;;;;0.40;0.40;;;;;;;11.29;85.82;98593.47;5070570;28;20521;-82
2023/07/22 01:00:16;;;;;;;0.40;0.40;;;;;;;11.21;86.11;98589.38;5070627;28;20426;-81
2023/07/22 01:02:43;;;;;;;0.40;0.40;;;;;;;11.19;86.49;98590.72;5069534;28;20052;-81
2023/07/22 01:05:12;;;;;;;0.50;0.50;;;;;;;11.14;86.89;98590.66;5070475;28;20044;-81
2023/07/22 01:07:39;;;;;;;0.47;0.47;;;;;;;11.14;86.98;98599.59;5052740;28;20096;-81
2023/07/22 01:10:08;;;;;;;0.40;0.40;;;;;;;11.10;87.17;98603.88;5070251;28;20048;-82
2023/07/22 01:12:35;;;;;;;0.40;0.40;;;;;;;11.14;87.47;98606.88;5070379;28;20147;-82
2023/07/22 01:15:03;;;;;;;0.43;0.43;;;;;;;11.14;87.49;98602.31;5070531;28;20044;-82
2023/07/22 01:17:31;;;;;;;0.40;0.40;;;;;;;11.12;87.29;98614.44;5071600;28;20048;-81
2023/07/22 01:19:59;;;;;;;0.50;0.50;;;;;;;11.12;87.56;98615.25;5042281;28;20937;-82
2023/07/22 01:22:27;;;;;;;0.50;0.50;;;;;;;11.18;87.54;98616.91;5049661;28;20057;-82
2023/07/22 01:24:54;;;;;;;0.40;0.40;;;;;;;11.21;87.41;98615.56;5050319;28;20577;-81
2023/07/22 01:27:22;;;;;;;0.40;0.40;;;;;;;11.22;87.26;98620.72;5050162;28;20515;-82
2023/07/22 01:29:52;;;;;;;0.50;0.50;;;;;;;11.19;87.55;98618.56;5048930;28;20462;-82
2023/07/22 01:32:22;;;;;;;0.50;0.50;;;;;;;11.18;87.62;98611.50;5050483;28;20049;-82
2023/07/22 01:34:50;;;;;;;0.40;0.40;;;;;;;11.15;87.68;98612.03;5050953;28;20048;-83
2023/07/22 01:37:17;;;;;;;0.50;0.50;;;;;;;11.13;87.80;98616.88;5050654;28;20098;-82
2023/07/22 01:39:44;;;;;;;0.40;0.40;;;;;;;11.13;87.98;98624.97;5049187;28;20099;-83
2023/07/22 01:42:11;;;;;;;0.40;0.40;;;;;;;11.11;88.00;98629.00;5050193;28;20077;-84
2023/07/22 01:44:40;;;;;;;0.40;0.40;;;;;;;11.09;88.41;98628.44;5051192;28;20076;-82
2023/07/22 01:47:07;;;;;;;0.40;0.40;;;;;;;11.06;88.25;98633.31;5068717;28;20049;-82
2023/07/22 01:49:34;;;;;;;0.40;0.40;;;;;;;11.02;88.56;98632.16;5069965;28;20177;-82
2023/07/22 01:52:01;;;;;;;0.50;0.50;;;;;;;10.99;88.63;98635.38;5069271;28;20181;-82
2023/07/22 01:54:28;;;;;;;0.40;0.40;;;;;;;10.99;88.74;98631.88;5070334;28;20078;-83
2023/07/22 01:56:55;;;;;;;0.40;0.40;;;;;;;11.06;88.91;98635.16;5070465;28;20045;-81
2023/07/22 01:59:25;;;;;;;0.40;0.40;;;;;;;11.06;88.72;98644.09;5052073;28;20109;-82
2023/07/22 02:01:52;;;;;;;0.50;0.50;;;;;;;11.06;88.78;98643.25;5072167;28;20048;-81
2023/07/22 02:04:19;;;;;;;0.40;0.40;;;;;;;11.06;88.76;98643.25;5089918;28;20083;-82
2023/07/22 02:06:46;;;;;;;0.50;0.50;;;;;;;11.06;88.68;98636.00;5090254;28;20109;-82
2023/07/22 02:09:13;;;;;;;0.40;0.40;;;;;;;11.11;88.56;98637.91;5072024;28;20055;-82
2023/07/22 02:11:41;;;;;;;0.40;0.40;;;;;;;11.12;88.52;98641.44;5072324;28;20044;-81
2023/07/22 02:14:08;;;;;;;0.47;0.47;;;;;;;11.14;88.51;98636.56;5090262;28;20052;-82
2023/07/22 02:16:39;;;;;;;0.40;0.40;;;;;;;11.16;88.49;98643.34;5072463;28;20040;-82
2023/07/22 02:19:06;;;;;;;0.40;0.40;;;;;;;11.18;88.26;98643.09;5060550;28;20041;-82
2023/07/22 02:21:40;;;;;;;0.40;0.40;;;;;;;11.19;88.26;98637.47;5066741;28;20049;-81
2023/07/22 02:24:07;;;;;;;0.40;0.40;;;;;;;11.27;87.92;98639.69;5052221;28;20051;-82
2023/07/22 02:26:35;;;;;;;0.40;0.40;;;;;;;11.31;87.91;98644.56;5052387;28;20530;-83
2023/07/22 02:29:02;;;;;;;0.50;0.50;;;;;;;11.37;87.73;98648.91;5049862;28;20737;-82
2023/07/22 02:31:29;;;;;;;0.50;0.50;;;;;;;11.42;87.33;98648.97;5032005;28;20075;-83
2023/07/22 02:33:56;;;;;;;0.40;0.40;;;;;;;11.44;87.13;98657.63;5048458;28;20052;-82
2023/07/22 02:36:23;;;;;;;0.40;0.40;;;;;;;11.48;86.87;98658.75;5051190;28;20060;-82
2023/07/22 02:38:51;;;;;;;0.40;0.40;;;;;;;11.55;86.61;98658.53;5053521;28;20499;-82
2023/07/22 02:41:18;;;;;;;0.40;0.40;;;;;;;11.54;86.50;98649.59;5041030;28;20423;-82
2023/07/22 02:43:45;;;;;;;0.40;0.40;;;;;;;11.58;86.65;98658.81;5088936;28;20071;-81
2023/07/22 02:46:12;;;;;;;0.50;0.50;;;;;;;11.61;86.50;98658.31;5073041;28;20402;-82
2023/07/22 02:48:40;;;;;;;0.40;0.40;;;;;;;11.64;86.37;98652.38;5055546;28;20044;-83
2023/07/22 02:51:09;;;;;;;0.50;0.50;;;;;;;11.71;86.17;98658.38;5073128;28;20056;-81
2023/07/22 02:53:36;;;;;;;0.40;0.40;;;;;;;11.76;85.93;98656.78;5087127;28;20048;-82
2023/07/22 02:56:07;;;;;;;0.50;0.50;;;;;;;11.77;85.56;98647.59;5075232;28;20109;-82
2023/07/22 02:58:36;;;;;;;0.40;0.40;;;;;;;11.90;85.56;98663.38;5075031;28;20418;-81
2023/07/22 03:01:04;;;;;;;0.45;0.45;;;;;;;11.96;85.14;98656.13;5074616;28;20526;-83
2023/07/22 03:03:34;;;;;;;0.40;0.40;;;;;;;12.02;84.83;98655.88;5093088;28;20418;-82
2023/07/22 03:06:03;;;;;;;0.47;0.47;;;;;;;12.08;84.73;98659.44;5058337;28;20502;-82
2023/07/22 03:08:30;;;;;;;0.40;0.40;;;;;;;12.17;84.38;98665.97;5093275;28;20391;-83
2023/07/22 03:10:57;;;;;;;0.40;0.40;;;;;;;12.25;83.98;98670.88;5075034;28;20059;-82
2023/07/22 03:13:24;;;;;;;0.50;0.50;;;;;;;12.31;83.36;98672.53;5091799;28;20060;-82
2023/07/22 03:15:51;;;;;;;0.50;0.50;;;;;;;12.34;82.85;98666.59;5093200;28;20040;-83
2023/07/22 03:18:19;;;;;;;0.50;0.50;;;;;;;12.37;82.41;98665.25;5072921;28;20055;-82
2023/07/22 03:20:46;;;;;;;0.40;0.40;;;;;;;12.41;82.63;98663.66;5071636;28;20048;-82
2023/07/22 03:23:13;;;;;;;0.50;0.50;;;;;;;12.44;82.43;98663.13;5076294;28;20062;-82
2023/07/22 03:25:41;;;;;;;0.40;0.40;;;;;;;12.51;82.46;98665.59;5108175;28;20045;-81
2023/07/22 03:28:08;;;;;;;0.50;0.50;;;;;;;12.54;81.94;98655.03;5092390;28;20143;-81
2023/07/22 03:30:35;;;;;;;0.50;0.50;;;;;;;12.63;81.81;98663.44;5057937;28;20074;-82
2023/07/22 03:33:02;;;;;;;0.43;0.43;;;;;;;12.70;81.76;98660.50;5092714;28;20077;-82
2023/07/22 03:35:29;;;;;;;0.50;0.50;;;;;;;12.75;81.83;98658.59;5074616;28;20070;-82
2023/07/22 03:37:56;;;;;;;0.50;0.50;;;;;;;12.80;81.60;98676.75;5065736;28;20530;-82
2023/07/22 03:40:28;;;;;;;0.50;0.50;;;;;;;12.90;81.43;98682.19;5070943;28;20044;-83
2023/07/22 03:42:56;;;;;;;0.50;0.50;;;;;;;13.01;81.26;98685.72;5072285;28;20102;-82
2023/07/22 03:45:23;;;;;;;0.50;0.50;;;;;;;13.06;81.23;98685.75;5071962;28;20141;-82
2023/07/22 03:47:56;;;;;;;0.40;0.40;;;;;;;13.18;80.84;98688.22;5071059;28;20048;-82
2023/07/22 03:50:24;;;;;;;0.40;0.40;;;;;;;13.26;80.57;98687.66;5072173;28;20056;-83
2023/07/22 03:52:51;;;;;;;0.40;0.40;;;;;;;13.36;80.04;98689.63;5054844;28;20131;-83
2023/07/22 03:55:19;;;;;;;0.50;0.50;;;;;;;13.38;79.77;98680.13;5072138;28;20059;-81
2023/07/22 03:57:46;;;;;;;0.50;0.50;;;;;;;13.49;79.33;98685.56;5073822;28;20136;-83
2023/07/22 04:00:14;;;;;;;0.50;0.50;;;;;;;13.56;78.78;98688.81;5061418;28;20110;-80
2023/07/22 04:02:41;;;;;;;0.50;0.50;;;;;;;13.65;78.45;98682.56;5071098;28;20114;-82
2023/07/22 04:05:09;;;;;;;0.50;0.50;;;;;;;13.73;77.91;98681.22;5053998;28;20129;-82
2023/07/22 04:07:37;;;;;;;0.40;0.40;;;;;;;13.77;77.42;98681.47;5054319;28;20090;-82
2023/07/22 04:10:05;;;;;;;0.40;0.40;;;;;;;13.87;77.25;98685.00;5053994;28;20098;-83
2023/07/22 04:12:32;;;;;;;0.40;0.40;;;;;;;13.94;76.53;98679.28;5071370;28;20098;-83
2023/07/22 04:15:00;;;;;;;0.50;0.50;;;;;;;14.00;76.41;98680.91;5071923;28;20046;-82
2023/07/22 04:17:30;;;;;;;0.45;0.45;;;;;;;14.07;76.08;98677.88;5046337;28;20051;-82
2023/07/22 04:19:57;;;;;;;0.40;0.40;;;;;;;14.17;75.61;98686.00;5073814;28;20044;-82
2023/07/22 04:22:24;;;;;;;0.43;0.43;;;;;;;14.27;75.66;98680.53;5072380;28;20060;-82
2023/07/22 04:24:51;;;;;;;0.40;0.40;;;;;;;14.35;75.16;98684.56;5073849;28;20064;-81
2023/07/22 04:27:22;;;;;;;0.43;0.43;;;;;;;14.42;74.46;98678.88;5092263;28;20048;-83
2023/07/22 04:29:49;;;;;;;0.50;0.50;;;;;;;14.51;74.20;98683.44;5091837;28;20075;-82
2023/07/22 04:32:16;;;;;;;0.40;0.40;;;;;;;14.61;73.94;98692.66;5060114;28;20048;-83
2023/07/22 04:34:43;;;;;;;0.50;0.50;;;;;;;14.62;73.45;98686.94;5054147;28;20044;-81
2023/07/22 04:37:10;;;;;;;0.40;0.40;;;;;;;14.73;72.77;98693.13;5070988;28;20507;-81
2023/07/22 04:39:37;;;;;;;0.50;0.50;;;;;;;14.85;72.92;98698.25;5071322;28;20044;-83
2023/07/22 04:42:04;;;;;;;0.40;0.40;;;;;;;14.97;72.52;98700.66;5048451;28;20072;-82
2023/07/22 04:44:31;;;;;;;0.40;0.40;;;;;;;15.05;71.93;98691.91;5057073;28;20056;-81
2023/07/22 04:46:58;;;;;;;0.40;0.40;;;;;;;15.12;71.29;98704.06;5069404;28;20121;-82
2023/07/22 04:49:25;;;;;;;0.40;0.40;;;;;;;15.23;71.17;98693.13;5070037;28;20139;-80
2023/07/22 04:51:52;;;;;;;0.40;0.40;;;;;;;15.32;70.28;98694.16;5064301;28;20049;-82
2023/07/22 04:54:19;;;;;;;0.40;0.40;;;;;;;15.36;69.68;98698.72;5068947;28;20053;-83
2023/07/22 04:56:46;;;;;;;0.40;0.40;;;;;;;15.45;69.24;98698.16;5071398;28;20044;-83
2023/07/22 04:59:14;;;;;;;0.40;0.40;;;;;;;15.54;69.12;98708.09;5070980;28;20078;-82
2023/07/22 05:01:41;;;;;;;0.40;0.40;;;;;;;15.66;68.93;98704.22;5071528;28;20048;-82
2023/07/22 05:04:08;;;;;;;0.40;0.40;;;;;;;15.74;67.79;98707.16;5069317;28;20477;-82
2023/07/22 05:06:36;;;;;;;0.40;0.40;;;;;;;15.79;67.54;98696.22;5069163;28;20420;-81
2023/07/22 05:09:03;;;;;;;0.40;0.40;;;;;;;15.86;67.67;98695.09;5084469;28;20080;-82
2023/07/22 05:11:30;;;;;;;0.40;0.40;;;;;;;15.96;67.26;98695.00;5091573;28;20052;-82
2023/07/22 05:13:58;;;;;;;0.40;0.40;;;;;;;16.01;66.45;98698.47;5084057;28;20047;-82
2023/07/22 05:16:24;;;;;;;0.40;0.40;;;;;;;16.07;65.29;98706.59;5060241;28;20469;-83
2023/07/22 05:18:52;;;;;;;0.40;0.40;;;;;;;16.12;65.22;98698.38;5065645;28;20045;-83
2023/07/22 05:21:19;;;;;;;0.40;0.40;;;;;;;16.20;64.76;98692.28;5052737;28;20506;-82
2023/07/22 05:23:46;;;;;;;0.47;0.47;;;;;;;16.30;64.50;98688.66;5070466;28;20170;-84
2023/07/22 05:26:14;;;;;;;0.47;0.47;;;;;;;16.45;64.39;98697.44;5078639;28;20040;-83
2023/07/22 05:28:41;;;;;;;0.40;0.40;;;;;;;16.50;63.89;98688.41;5089145;28;20142;-82
2023/07/22 05:31:08;;;;;;;0.40;0.40;;;;;;;16.54;63.41;98685.94;5076897;28;20054;-84
2023/07/22 05:33:37;;;;;;;0.40;0.40;;;;;;;16.64;63.68;98694.78;5072270;28;20142;-84
2023/07/22 05:36:04;;;;;;;0.40;0.40;;;;;;;16.72;62.22;98693.31;5066133;28;20072;-85
2023/07/22 05:38:31;;;;;;;0.40;0.40;;;;;;;16.79;62.23;98690.28;5072210;28;20156;-85
2023/07/22 05:40:58;;;;;;;0.40;0.40;;;;;;;16.92;62.37;98691.47;5069107;28;20450;-85
2023/07/22 05:43:25;;;;;;;0.40;0.40;;;;;;;16.97;61.45;98684.03;5063934;28;20076;-85
2023/07/22 05:45:52;;;;;;;0.40;0.40;;;;;;;17.03;61.52;98680.09;5082904;28;20048;-85
2023/07/22 05:48:21;;;;;;;0.40;0.40;;;;;;;17.20;61.23;98687.78;5069357;28;20044;-85
2023/07/22 05:50:48;;;;;;;0.40;0.40;;;;;;;17.44;60.29;98690.38;5069218;28;20560;-82
2023/07/22 05:53:16;;;;;;;0.40;0.40;;;;;;;17.47;59.35;98688.97;5077624;28;20119;-82
2023/07/22 05:55:43;;;;;;;0.40;0.40;;;;;;;17.47;58.86;98689.81;5052909;28;20048;-81
2023/07/22 05:58:17;;;;;;;0.40;0.40;;;;;;;17.42;59.05;98678.16;5052525;28;20048;-82
2023/07/22 06:00:46;;;;;;;0.40;0.40;;;;;;;17.61;59.70;98684.41;5079498;28;20418;-82
2023/07/22 06:03:13;;;;;;;0.40;0.40;;;;;;;17.57;57.71;98669.72;5082342;28;20095;-87
2023/07/22 06:05:41;;;;;;;0.40;0.40;;;;;;;17.60;58.13;98687.41;5074465;28;20522;-83
2023/07/22 06:08:08;;;;;;;0.40;0.40;;;;;;;17.72;57.97;98680.41;5064521;28;20497;-83
2023/07/22 06:10:37;;;;;;;0.40;0.40;;;;;;;17.87;57.12;98676.59;5070463;28;20569;-84
2023/07/22 06:13:05;;;;;;;0.40;0.40;;;;;;;17.96;57.14;98680.28;5078834;28;20063;-83
2023/07/22 06:15:32;;;;;;;0.40;0.40;;;;;;;18.07;56.72;98675.41;5075819;28;20098;-83
2023/07/22 06:18:00;;;;;;;0.40;0.40;;;;;;;18.12;56.36;98666.31;5073794;28;20135;-84
2023/07/22 06:20:28;;;;;;;0.40;0.40;;;;;;;18.22;56.36;98665.31;5056278;28;20055;-83
2023/07/22 06:22:55;;;;;;;0.30;0.30;;;;;;;18.26;56.20;98671.81;5072830;28;20060;-83
2023/07/22 06:25:22;;;;;;;0.40;0.40;;;;;;;18.24;56.20;98669.38;5040227;28;20502;-85
2023/07/22 06:27:50;;;;;;;0.38;0.38;;;;;;;18.34;56.14;98676.56;5073504;28;20449;-83
2023/07/22 06:30:17;;;;;;;0.40;0.40;;;;;;;18.37;55.50;98670.50;5072904;28;20080;-83
2023/07/22 06:32:44;;;;;;;0.30;0.30;;;;;;;18.36;54.93;98688.00;5071836;28;20040;-82
2023/07/22 06:35:11;;;;;;;0.40;0.40;;;;;;;18.35;55.00;98676.25;5073065;28;20451;-82
2023/07/22 06:37:40;;;;;;;0.40;0.40;;;;;;;18.41;54.48;98696.09;5082178;28;20052;-82
2023/07/22 06:40:07;;;;;;;0.40;0.40;;;;;;;18.65;54.50;98678.66;5054222;28;20048;-83
2023/07/22 06:42:34;;;;;;;0.40;0.40;;;;;;;18.82;53.19;98678.88;5075745;28;20044;-83
2023/07/22 06:45:02;;;;;;;0.40;0.40;;;;;;;18.81;53.27;98672.59;5060080;28;20048;-81
2023/07/22 06:47:31;;;;;;;0.40;0.40;;;;;;;18.88;53.27;98672.16;5035589;28;20053;-81
2023/07/22 06:49:58;;;;;;;0.40;0.40;;;;;;;19.00;52.53;98679.84;5068837;28;20076;-81
2023/07/22 06:52:25;;;;;;;0.40;0.40;;;;;;;18.94;52.71;98681.06;5072324;28;20059;-82
2023/07/22 06:54:52;;;;;;;0.40;0.40;;;;;;;19.27;52.29;98698.13;5072855;28;20696;-82
2023/07/22 06:57:19;;;;;;;0.40;0.40;;;;;;;19.27;51.84;98696.19;5072134;28;20049;-81
2023/07/22 06:59:46;;;;;;;0.40;0.40;;;;;;;19.26;51.47;98677.31;5072324;28;20106;-81
2023/07/22 07:02:13;;;;;;;0.40;0.40;;;;;;;19.41;51.74;98679.69;5054830;28;20598;-82
2023/07/22 07:04:40;;;;;;;0.40;0.40;;;;;;;19.47;50.84;98683.09;5053090;28;20544;-81
2023/07/22 07:07:07;;;;;;;0.40;0.40;;;;;;;19.40;50.84;98678.09;5072355;28;20475;-81
2023/07/22 07:09:35;;;;;;;0.40;0.40;;;;;;;19.27;51.25;98676.22;5094902;28;20074;-83
2023/07/22 07:12:08;;;;;;;0.40;0.40;;;;;;;19.25;50.42;98667.50;5069835;28;20526;-82
2023/07/22 07:14:36;;;;;;;0.40;0.40;;;;;;;19.31;50.36;98671.72;5058984;28;20565;-83
2023/07/22 07:17:05;;;;;;;0.40;0.40;;;;;;;19.53;50.30;98678.34;5054258;28;20106;-83
2023/07/22 07:19:33;;;;;;;0.35;0.35;;;;;;;19.53;49.40;98670.13;5052840;28;20051;-81
2023/07/22 07:22:01;;;;;;;0.40;0.40;;;;;;;19.60;49.57;98667.78;5069399;28;20143;-81
2023/07/22 07:24:28;;;;;;;0.40;0.40;;;;;;;19.60;49.47;98668.56;5070727;28;20048;-82
2023/07/22 07:26:55;;;;;;;0.40;0.40;;;;;;;19.57;49.22;98661.00;5070490;28;20044;-83
2023/07/22 07:29:22;;;;;;;0.30;0.30;;;;;;;19.61;48.99;98680.31;5070699;28;20053;-81
2023/07/22 07:32:09;;;;;;;0.30;0.30;;;;;;;19.38;49.04;98680.31;5053876;28;20041;-82
2023/07/22 07:34:37;;;;;;;0.40;0.40;;;;;;;19.51;49.24;98686.06;5071612;28;20059;-83
2023/07/22 07:37:04;;;;;;;0.40;0.40;;;;;;;19.57;49.21;98687.53;5071443;28;20067;-83
2023/07/22 07:39:31;;;;;;;0.30;0.30;;;;;;;19.51;49.69;98675.09;5069669;28;20055;-83
2023/07/22 07:41:58;;;;;;;0.40;0.40;;;;;;;19.58;48.89;98694.63;5087246;28;20518;-84
2023/07/22 07:44:25;;;;;;;0.40;0.40;;;;;;;19.75;48.59;98692.06;5075669;28;20122;-84
2023/07/22 07:46:52;;;;;;;0.40;0.40;;;;;;;19.81;48.22;98685.31;5070799;28;20461;-83
2023/07/22 07:49:19;;;;;;;0.40;0.40;;;;;;;20.23;48.15;98671.31;5071355;28;20045;-86
2023/07/22 07:51:46;;;;;;;0.40;0.40;;;;;;;20.58;45.96;98685.19;5071742;28;20559;-85
2023/07/22 07:54:14;;;;;;;0.40;0.40;;;;;;;20.54;46.28;98698.69;5086728;28;20080;-85
2023/07/22 07:56:41;;;;;;;0.30;0.30;;;;;;;20.43;46.13;98689.94;5053383;28;20044;-83
2023/07/22 07:59:09;;;;;;;0.50;0.50;;;;;;;20.13;47.22;98683.41;5070910;28;20041;-85
2023/07/22 08:01:41;;;;;;;0.40;0.40;;;;;;;20.63;46.83;98685.03;5053572;28;20502;-85
2023/07/22 08:04:08;;;;;;;0.45;0.45;;;;;;;20.75;46.29;98677.00;5070594;28;20051;-84
2023/07/22 08:06:37;;;;;;;0.40;0.40;;;;;;;20.76;46.26;98695.06;5070965;28;20476;-83
2023/07/22 08:09:05;;;;;;;0.40;0.40;;;;;;;20.69;45.50;98690.06;5070566;28;20049;-85
2023/07/22 08:11:32;;;;;;;0.50;0.50;;;;;;;20.80;44.54;98687.03;5071110;28;20101;-83
2023/07/22 08:14:00;;;;;;;0.40;0.40;;;;;;;20.97;44.66;98687.06;5035376;28;20052;-87
2023/07/22 08:16:27;;;;;;;0.50;0.50;;;;;;;21.32;43.75;98685.13;5071013;28;20048;-83
2023/07/22 08:18:55;;;;;;;0.30;0.30;;;;;;;21.38;43.36;98696.75;5068329;28;20151;-86
2023/07/22 08:21:22;;;;;;;0.30;0.30;;;;;;;20.90;44.19;98690.25;5052758;28;20044;-83
2023/07/22 08:23:49;;;;;;;0.30;0.30;;;;;;;20.75;45.19;98697.00;5070541;28;20064;-84
2023/07/22 08:26:20;;;;;;;0.50;0.50;;;;;;;20.65;44.70;98713.75;5053165;28;20040;-84
2023/07/22 08:28:48;;;;;;;0.50;0.50;;;;;;;20.98;44.14;98685.91;5070008;28;20052;-82
2023/07/22 08:31:15;;;;;;;0.30;0.30;;;;;;;20.94;44.48;98695.91;5041798;28;20060;-84
2023/07/22 08:33:42;;;;;;;0.40;0.40;;;;;;;20.71;45.52;98684.25;5051866;28;20057;-82
2023/07/22 08:36:09;;;;;;;0.30;0.30;;;;;;;20.57;45.45;98689.88;5052514;28;20133;-81
2023/07/22 08:38:36;;;;;;;0.40;0.40;;;;;;;20.64;45.42;98695.69;5070399;28;20139;-83
2023/07/22 08:41:03;;;;;;;0.40;0.40;;;;;;;20.99;44.76;98679.31;5069806;28;20048;-83
2023/07/22 08:43:34;;;;;;;0.60;0.60;;;;;;;22.07;43.24;98693.09;5069648;28;20040;-82
2023/07/22 08:46:01;;;;;;;0.60;0.60;;;;;;;22.68;41.21;98687.38;5070277;28;20080;-83
2023/07/22 08:48:32;;;;;;;0.30;0.30;;;;;;;22.28;41.64;98693.22;5069418;28;20094;-81
2023/07/22 08:51:06;;;;;;;0.60;0.60;;;;;;;22.05;41.95;98695.38;5070128;28;20060;-84
2023/07/22 08:53:34;;;;;;;0.70;0.70;;;;;;;22.62;40.05;98695.00;5052327;28;20089;-83
2023/07/22 08:56:01;;;;;;;0.60;0.60;;;;;;;22.85;39.40;98687.28;5051131;28;20048;-83
2023/07/22 08:58:30;;;;;;;0.57;0.57;;;;;;;23.12;38.24;98693.44;5070306;28;20045;-86
2023/07/22 09:00:58;;;;;;;0.60;0.60;;;;;;;22.82;39.34;98685.19;5052892;28;20048;-80
2023/07/22 09:03:25;;;;;;;0.60;0.60;;;;;;;23.36;38.67;98704.56;5034938;28;20051;-83
2023/07/22 09:05:52;;;;;;;0.30;0.30;;;;;;;23.21;39.56;98698.88;5037335;28;20049;-82
2023/07/22 09:08:20;;;;;;;0.30;0.30;;;;;;;22.48;40.77;98691.69;5066508;28;20064;-81
2023/07/22 09:10:48;;;;;;;0.60;0.60;;;;;;;23.15;38.53;98712.84;5070453;28;20151;-81
2023/07/22 09:13:15;;;;;;;0.40;0.40;;;;;;;23.34;37.56;98704.09;5069867;28;20139;-83
2023/07/22 09:15:42;;;;;;;0.50;0.50;;;;;;;23.36;38.12;98674.28;5060867;28;20154;-81
2023/07/22 09:18:10;;;;;;;0.60;0.60;;;;;;;23.52;37.85;98684.66;5067774;28;20055;-84
2023/07/22 09:20:37;;;;;;;0.50;0.50;;;;;;;24.01;36.55;98676.59;5069745;28;20122;-85
2023/07/22 09:23:05;;;;;;;0.60;0.60;;;;;;;24.75;34.45;98682.19;5050752;28;20056;-84
2023/07/22 09:25:41;;;;;;;0.50;0.50;;;;;;;25.01;34.36;98690.88;5067377;28;20139;-83
2023/07/22 09:28:09;;;;;;;0.60;0.60;;;;;;;24.55;35.24;98683.91;5069453;28;20110;-83
2023/07/22 09:30:39;;;;;;;0.57;0.57;;;;;;;24.79;35.10;98685.88;5051549;28;20048;-82
2023/07/22 09:33:08;;;;;;;0.40;0.40;;;;;;;25.06;34.69;98685.09;5051991;28;20527;-80
2023/07/22 09:35:46;;;;;;;0.57;0.57;;;;;;;24.40;36.16;98680.66;5037449;28;20040;-83
2023/07/22 09:38:15;;;;;;;0.60;0.60;;;;;;;24.69;36.11;98686.31;5068236;28;20525;-84
2023/07/22 09:40:42;;;;;;;0.60;0.60;;;;;;;25.07;34.11;98741.94;5051705;28;20083;-82
2023/07/22 09:43:11;;;;;;;0.60;0.60;;;;;;;24.80;34.10;98707.56;5062897;28;20052;-83
2023/07/22 09:45:38;;;;;;;0.68;0.68;;;;;;;24.79;34.07;98689.41;5053457;28;20084;-83
2023/07/22 09:48:05;;;;;;;0.43;0.43;;;;;;;24.86;34.21;98683.31;5073250;28;20122;-83
2023/07/22 09:50:33;;;;;;;0.35;0.35;;;;;;;24.50;34.55;98698.72;5054974;28;20045;-83
2023/07/22 09:53:03;;;;;;;0.30;0.30;;;;;;;24.57;34.62;98671.38;5045416;28;20227;-81
2023/07/22 09:55:32;;;;;;;0.60;0.60;;;;;;;24.82;35.24;98701.72;5071269;28;20136;-81
2023/07/22 09:58:01;;;;;;;0.60;0.60;;;;;;;24.93;34.10;98718.59;5072739;28;20044;-82
2023/07/22 10:00:31;;;;;;;0.60;0.60;;;;;;;25.24;34.11;98693.16;5046602;28;20063;-83
2023/07/22 10:02:59;;;;;;;0.60;0.60;;;;;;;25.37;33.04;98710.47;5071865;28;20094;-81
2023/07/22 10:05:28;;;;;;;0.60;0.60;;;;;;;25.64;31.43;98703.38;5072543;28;20460;-80
2023/07/22 10:07:57;;;;;;;0.60;0.60;;;;;;;25.04;33.22;98712.28;5073158;28;20150;-84
2023/07/22 10:10:35;;;;;;;0.65;0.65;;;;;;;25.80;32.13;98709.75;5071704;28;20044;-83
2023/07/22 10:13:03;;;;;;;0.50;0.50;;;;;;;26.25;31.90;98699.47;5052640;28;20071;-83
2023/07/22 10:15:33;;;;;;;0.60;0.60;;;;;;;26.61;31.55;98690.13;5072997;28;20059;-83
2023/07/22 10:18:01;;;;;;;0.60;0.60;;;;;;;27.16;31.10;98704.03;5071807;28;20044;-83
2023/07/22 10:20:29;;;;;;;0.60;0.60;;;;;;;27.27;30.28;98693.22;5087806;28;20417;-82
2023/07/22 10:22:56;;;;;;;0.50;0.50;;;;;;;26.70;31.45;98698.25;5068784;28;20068;-81
2023/07/22 10:25:23;;;;;;;0.60;0.60;;;;;;;26.59;30.73;98720.13;5064799;28;20094;-81
2023/07/22 10:27:51;;;;;;;0.30;0.30;;;;;;;25.69;32.23;98719.69;5073406;28;20449;-82
2023/07/22 10:30:23;;;;;;;0.30;0.30;;;;;;;25.87;32.20;98706.38;5074076;28;20060;-83
2023/07/22 10:32:54;;;;;;;0.20;0.20;;;;;;;24.92;33.92;98692.97;5052854;28;20449;-83
2023/07/22 10:35:30;;;;;;;0.30;0.30;;;;;;;24.22;35.34;98701.31;5073570;28;20055;-84
2023/07/22 10:38:16;;;;;;;0.22;0.22;;;;;;;23.31;37.28;98704.78;5077397;28;20056;-81
2023/07/22 10:40:53;;;;;;;0.30;0.30;;;;;;;22.66;37.78;98698.72;5079179;28;20523;-83
2023/07/22 10:43:30;;;;;;;0.30;0.30;;;;;;;22.35;37.98;98693.50;5056419;28;20465;-82
2023/07/22 10:45:58;;;;;;;0.30;0.30;;;;;;;22.23;38.07;98701.66;5068968;28;20095;-82
2023/07/22 10:48:34;;;;;;;0.30;0.30;;;;;;;22.11;38.38;98698.78;5057747;28;20070;-82
2023/07/22 10:51:06;;;;;;;0.30;0.30;;;;;;;21.93;39.03;98714.50;5073497;28;20051;-83
2023/07/22 10:53:42;;;;;;;0.70;0.70;;;;;;;22.84;37.68;98713.19;5072409;28;20144;-83
2023/07/22 10:56:11;;;;;;;0.70;0.70;;;;;;;24.92;34.97;98701.25;5071113;28;20048;-84
2023/07/22 10:58:44;;;;;;;0.70;0.70;;;;;;;26.32;32.54;98717.06;5088196;28;20048;-83
2023/07/22 11:01:30;;;;;;;0.70;0.70;;;;;;;27.32;31.09;98695.69;5072935;28;20055;-84
2023/07/22 11:04:18;;;;;;;0.60;0.60;;;;;;;27.97;29.66;98697.78;5058362;28;20126;-82
2023/07/22 11:06:45;;;;;;;0.60;0.60;;;;;;;28.33;27.79;98690.88;5071555;28;20059;-83
2023/07/22 11:09:28;;;;;;;0.60;0.60;;;;;;;28.73;27.71;98697.91;5072573;28;20580;-82
2023/07/22 11:11:57;;;;;;;0.60;0.60;;;;;;;29.30;26.53;98690.41;5073001;28;20052;-85
2023/07/22 11:14:26;;;;;;;0.20;0.20;;;;;;;26.89;29.28;98705.78;5073864;28;20052;-83
2023/07/22 11:16:57;;;;;;;0.30;0.30;;;;;;;25.19;31.41;98721.00;5076286;28;20063;-83
2023/07/22 11:19:25;;;;;;;0.28;0.28;;;;;;;24.90;31.97;98706.31;5053222;28;20068;-84
2023/07/22 11:21:54;;;;;;;0.30;0.30;;;;;;;24.49;32.59;98704.59;5036551;28;20055;-83
2023/07/22 11:24:23;;;;;;;0.80;0.80;;;;;;;25.91;31.53;98721.94;5040946;28;20055;-83
2023/07/22 11:26:52;;;;;;;0.30;0.30;;;;;;;25.38;31.77;98712.91;5020542;28;20060;-84
2023/07/22 11:29:20;;;;;;;0.20;0.20;;;;;;;24.59;32.65;98713.22;5071911;28;20078;-84
2023/07/22 11:31:49;;;;;;;0.20;0.20;;;;;;;23.86;34.43;98727.66;5053233;28;20445;-84
2023/07/22 11:34:18;;;;;;;0.20;0.20;;;;;;;23.17;34.97;98723.53;5063011;28;20049;-83
2023/07/22 11:36:46;;;;;;;0.25;0.25;;;;;;;22.75;36.34;98734.41;5073789;28;20045;-85
2023/07/22 11:39:18;;;;;;;0.20;0.20;;;;;;;22.56;36.35;98725.78;5072470;28;20044;-85